createdAt,value
2023-02-27T00:01:00.414Z,12.55
2023-02-27T00:03:28.285Z,12.78
2023-02-27T00:05:56.467Z,12.04
2023-02-27T00:08:24.424Z,11.79
2023-02-27T00:10:52.172Z,12.11
2023-02-27T00:13:19.870Z,12.61
2023-02-27T00:15:49.464Z,12.34
2023-02-27T00:18:17.323Z,12.85
2023-02-27T00:20:45.082Z,12.62
2023-02-27T00:23:12.821Z,12.57
2023-02-27T00:25:40.644Z,12.02
2023-02-27T00:28:08.317Z,11.26
2023-02-27T00:30:36.049Z,11.30
2023-02-27T00:33:03.997Z,11.73
2023-02-27T00:35:31.737Z,11.41
2023-02-27T00:37:59.412Z,11.52
2023-02-27T00:40:27.383Z,12.03
2023-02-27T00:42:55.106Z,11.98
2023-02-27T00:45:22.951Z,11.90
2023-02-27T00:47:50.659Z,11.36
2023-02-27T00:50:18.454Z,11.56
2023-02-27T00:52:46.172Z,11.87
2023-02-27T00:55:13.928Z,11.98
2023-02-27T00:57:42.009Z,12.17
2023-02-27T01:00:10.466Z,11.90
2023-02-27T01:02:39.016Z,11.86
2023-02-27T01:05:08.845Z,11.46
2023-02-27T01:07:37.618Z,11.05
2023-02-27T01:10:06.268Z,11.06
2023-02-27T01:12:33.933Z,10.18
2023-02-27T01:15:01.740Z,10.23
2023-02-27T01:17:29.453Z,10.17
2023-02-27T01:19:57.475Z,10.35
2023-02-27T01:22:25.188Z,10.83
2023-02-27T01:24:52.930Z,10.75
2023-02-27T01:27:20.679Z,10.25
2023-02-27T01:29:48.360Z,10.22
2023-02-27T01:32:16.322Z,10.69
2023-02-27T01:34:44.654Z,10.92
2023-02-27T01:37:12.431Z,10.81
2023-02-27T01:39:43.586Z,10.51
2023-02-27T01:42:21.830Z,10.92
2023-02-27T01:45:17.581Z,10.89
2023-02-27T01:47:47.838Z,10.75
2023-02-27T01:50:16.104Z,10.96
2023-02-27T01:52:43.987Z,10.77
2023-02-27T01:55:13.298Z,9.88
2023-02-27T01:57:41.195Z,10.32
2023-02-27T02:00:09.664Z,10.24
2023-02-27T02:02:44.117Z,10.36
2023-02-27T02:05:14.445Z,10.84
2023-02-27T02:07:42.267Z,10.81
2023-02-27T02:10:11.950Z,10.80
2023-02-27T02:12:40.681Z,9.86
2023-02-27T02:15:10.250Z,10.30
2023-02-27T02:18:00.051Z,10.45
2023-02-27T02:20:49.748Z,10.90
2023-02-27T02:23:42.425Z,10.02
2023-02-27T02:26:31.054Z,9.54
2023-02-27T02:29:31.815Z,8.88
2023-02-27T02:32:08.534Z,9.73
2023-02-27T02:34:50.398Z,9.49
2023-02-27T02:37:33.891Z,8.71
2023-02-27T02:40:30.928Z,9.05
2023-02-27T02:43:06.432Z,8.41
2023-02-27T02:45:34.033Z,9.19
2023-02-27T02:48:12.461Z,9.31
2023-02-27T02:50:58.394Z,8.67
2023-02-27T02:53:36.053Z,8.07
2023-02-27T02:56:16.837Z,8.01
2023-02-27T02:59:18.735Z,7.88
2023-02-27T03:01:53.324Z,8.55
2023-02-27T03:04:27.980Z,7.38
2023-02-27T03:06:59.678Z,6.21
2023-02-27T03:09:46.481Z,6.12
2023-02-27T03:12:19.778Z,6.70
2023-02-27T03:15:17.588Z,6.67
2023-02-27T03:18:00.584Z,6.58
2023-02-27T03:20:31.165Z,6.39
2023-02-27T03:23:00.230Z,6.17
2023-02-27T03:25:28.334Z,5.80
2023-02-27T03:28:01.225Z,6.52
2023-02-27T03:30:36.424Z,6.51
2023-02-27T03:33:14.405Z,7.75
2023-02-27T03:35:47.382Z,8.28
2023-02-27T03:38:23.648Z,8.90
2023-02-27T03:41:04.198Z,9.10
2023-02-27T03:43:50.331Z,8.78
2023-02-27T03:46:21.085Z,8.94
2023-02-27T03:48:48.845Z,9.38
2023-02-27T03:51:20.780Z,8.78
2023-02-27T03:54:07.500Z,9.45
2023-02-27T03:57:04.400Z,9.11
2023-02-27T03:59:32.237Z,8.04
2023-02-27T04:02:00.641Z,8.46
2023-02-27T04:04:31.805Z,8.53
2023-02-27T04:07:31.958Z,8.52
2023-02-27T04:10:44.290Z,8.41
2023-02-27T04:13:50.533Z,8.88
2023-02-27T04:16:33.325Z,8.78
2023-02-27T04:19:12.762Z,8.74
2023-02-27T04:22:03.354Z,9.03
2023-02-27T04:25:03.593Z,8.55
2023-02-27T04:27:38.880Z,8.55
2023-02-27T04:30:25.612Z,8.92
2023-02-27T04:32:57.272Z,9.11
2023-02-27T04:35:44.009Z,8.77
2023-02-27T04:38:33.942Z,8.39
2023-02-27T04:41:13.831Z,8.81
2023-02-27T04:43:41.860Z,8.85
2023-02-27T04:46:11.163Z,9.25
2023-02-27T04:48:43.813Z,9.37
2023-02-27T04:51:14.492Z,9.05
2023-02-27T04:53:52.228Z,8.44
2023-02-27T04:56:44.829Z,8.29
2023-02-27T04:59:17.692Z,8.47
2023-02-27T05:01:48.219Z,7.97
2023-02-27T05:04:16.215Z,8.42
2023-02-27T05:06:45.345Z,8.52
2023-02-27T05:09:27.148Z,8.19
2023-02-27T05:11:59.064Z,8.82
2023-02-27T05:14:34.358Z,8.92
2023-02-27T05:17:05.216Z,8.59
2023-02-27T05:19:33.013Z,8.59
2023-02-27T05:22:11.500Z,8.53
2023-02-27T05:24:41.761Z,8.63
2023-02-27T05:27:31.447Z,8.84
2023-02-27T05:30:12.541Z,9.24
2023-02-27T05:32:43.567Z,8.85
2023-02-27T05:35:19.070Z,9.08
2023-02-27T05:38:08.245Z,8.95
2023-02-27T05:40:45.347Z,8.60
2023-02-27T05:43:17.014Z,8.64
2023-02-27T05:45:46.167Z,8.60
2023-02-27T05:48:28.890Z,8.52
2023-02-27T05:50:56.564Z,8.58
2023-02-27T05:53:26.015Z,7.78
2023-02-27T05:55:54.477Z,7.52
2023-02-27T05:58:41.988Z,6.69
2023-02-27T06:01:10.755Z,6.87
2023-02-27T06:03:39.245Z,6.59
2023-02-27T06:06:08.856Z,6.45
2023-02-27T06:08:36.570Z,7.17
2023-02-27T06:11:04.320Z,7.10
2023-02-27T06:13:32.083Z,7.26
2023-02-27T06:15:59.833Z,7.37
2023-02-27T06:18:27.586Z,7.48
2023-02-27T06:20:55.285Z,7.36
2023-02-27T06:23:23.241Z,7.33
2023-02-27T06:25:50.996Z,6.69
2023-02-27T06:28:18.953Z,7.36
2023-02-27T06:30:46.757Z,7.99
2023-02-27T06:33:14.533Z,7.16
2023-02-27T06:35:42.277Z,7.34
2023-02-27T06:38:10.604Z,8.50
2023-02-27T06:40:38.564Z,7.82
2023-02-27T06:43:06.322Z,8.01
2023-02-27T06:45:34.487Z,7.16
2023-02-27T06:48:02.181Z,7.82
2023-02-27T06:50:30.034Z,8.79
2023-02-27T06:52:57.878Z,8.67
2023-02-27T06:55:25.803Z,8.06
2023-02-27T06:57:53.505Z,7.06
2023-02-27T07:00:21.498Z,7.77
2023-02-27T07:02:49.285Z,8.12
2023-02-27T07:05:18.120Z,7.73
2023-02-27T07:07:46.046Z,7.95
2023-02-27T07:10:14.470Z,6.76
2023-02-27T07:12:42.198Z,6.30
2023-02-27T07:15:10.314Z,6.65
2023-02-27T07:17:38.073Z,6.64
2023-02-27T07:20:07.302Z,6.57
2023-02-27T07:22:35.200Z,6.53
2023-02-27T07:25:03.448Z,7.37
2023-02-27T07:27:31.416Z,7.63
2023-02-27T07:29:59.294Z,7.79
2023-02-27T07:32:27.636Z,7.90
2023-02-27T07:34:55.349Z,7.82
2023-02-27T07:37:23.136Z,8.04
2023-02-27T07:39:50.795Z,7.87
2023-02-27T07:42:18.562Z,7.91
2023-02-27T07:44:46.318Z,7.94
2023-02-27T07:47:14.071Z,7.77
2023-02-27T07:49:41.756Z,6.00
2023-02-27T07:52:09.481Z,7.50
2023-02-27T07:54:40.148Z,7.91
2023-02-27T07:57:07.942Z,8.02
2023-02-27T07:59:35.669Z,8.44
2023-02-27T08:02:03.477Z,8.53
2023-02-27T08:04:31.274Z,7.45
2023-02-27T08:06:59.050Z,7.42
2023-02-27T08:09:26.796Z,7.28
2023-02-27T08:11:54.482Z,6.97
2023-02-27T08:14:22.213Z,6.22
2023-02-27T08:16:49.955Z,6.50
2023-02-27T08:19:17.718Z,6.22
2023-02-27T08:21:45.474Z,6.54
2023-02-27T08:24:13.246Z,6.70
2023-02-27T08:26:40.924Z,7.27
2023-02-27T08:29:08.689Z,6.83
2023-02-27T08:31:36.447Z,6.95
2023-02-27T08:34:10.243Z,6.50
2023-02-27T08:36:38.697Z,6.39
2023-02-27T08:39:07.201Z,6.86
2023-02-27T08:41:35.026Z,6.84
2023-02-27T08:44:02.982Z,6.57
2023-02-27T08:46:30.759Z,6.63
2023-02-27T08:48:58.518Z,6.32
2023-02-27T08:51:26.648Z,6.40
2023-02-27T08:53:58.802Z,6.26
2023-02-27T08:56:26.914Z,6.29
2023-02-27T08:58:55.000Z,5.76
2023-02-27T09:01:22.772Z,6.33
2023-02-27T09:03:50.927Z,6.09
2023-02-27T09:06:18.597Z,6.34
2023-02-27T09:08:46.354Z,5.63
2023-02-27T09:11:14.076Z,5.55
2023-02-27T09:13:41.774Z,5.77
2023-02-27T09:16:10.284Z,6.02
2023-02-27T09:18:38.105Z,6.49
2023-02-27T09:21:05.966Z,5.82
2023-02-27T09:23:33.716Z,5.53
2023-02-27T09:26:01.372Z,6.18
2023-02-27T09:28:29.299Z,5.75
2023-02-27T09:31:01.128Z,5.66
2023-02-27T09:33:29.317Z,6.07
2023-02-27T09:35:57.116Z,5.67
2023-02-27T09:38:25.375Z,6.00
2023-02-27T09:40:53.828Z,5.76
2023-02-27T09:43:43.647Z,5.58
2023-02-27T09:46:19.069Z,6.22
2023-02-27T09:48:52.137Z,6.14
2023-02-27T09:51:19.985Z,6.16
2023-02-27T09:54:05.943Z,5.87
2023-02-27T09:56:48.727Z,5.88
2023-02-27T09:59:48.236Z,5.95
2023-02-27T10:02:24.879Z,5.63
2023-02-27T10:04:55.349Z,5.74
2023-02-27T10:07:33.732Z,5.82
2023-02-27T10:10:26.213Z,5.79
2023-02-27T10:13:06.414Z,5.83
2023-02-27T10:15:37.641Z,6.13
2023-02-27T10:18:25.549Z,6.59
2023-02-27T10:20:55.463Z,6.16
2023-02-27T10:23:34.450Z,5.93
2023-02-27T10:26:02.223Z,7.09
2023-02-27T10:28:29.945Z,7.40
2023-02-27T10:30:58.732Z,7.87
2023-02-27T10:33:37.474Z,7.34
2023-02-27T10:36:15.955Z,7.81
2023-02-27T10:38:59.761Z,7.79
2023-02-27T10:41:28.240Z,8.08
2023-02-27T10:43:57.986Z,7.60
2023-02-27T10:46:29.992Z,7.75
2023-02-27T10:49:01.970Z,7.83
2023-02-27T10:51:31.620Z,7.70
2023-02-27T10:54:24.294Z,8.01
2023-02-27T10:57:00.263Z,7.93
2023-02-27T10:59:27.902Z,7.52
2023-02-27T11:01:57.218Z,7.36
2023-02-27T11:04:36.517Z,7.34
2023-02-27T11:07:10.057Z,7.54
2023-02-27T11:09:37.938Z,7.61
2023-02-27T11:12:24.418Z,7.91
2023-02-27T11:15:03.309Z,8.03
2023-02-27T11:17:32.864Z,8.03
2023-02-27T11:20:01.727Z,8.34
2023-02-27T11:22:30.484Z,8.68
2023-02-27T11:25:19.128Z,8.56
2023-02-27T11:27:47.215Z,8.20
2023-02-27T11:30:27.292Z,8.51
2023-02-27T11:32:56.585Z,8.65
2023-02-27T11:35:28.768Z,8.31
2023-02-27T11:37:59.125Z,8.15
2023-02-27T11:40:50.802Z,8.43
2023-02-27T11:43:28.422Z,8.66
2023-02-27T11:46:04.805Z,8.75
2023-02-27T11:48:48.901Z,8.78
2023-02-27T11:51:26.051Z,8.60
2023-02-27T11:54:20.934Z,8.85
2023-02-27T11:56:52.769Z,8.44
2023-02-27T11:59:39.370Z,8.31
2023-02-27T12:02:09.857Z,8.47
2023-02-27T12:04:57.508Z,8.44
2023-02-27T12:07:44.974Z,8.88
2023-02-27T12:10:20.452Z,8.63
2023-02-27T12:13:01.255Z,7.61
2023-02-27T12:15:52.914Z,8.36
2023-02-27T12:18:23.822Z,8.59
2023-02-27T12:21:10.705Z,8.70
2023-02-27T12:23:53.486Z,8.42
2023-02-27T12:26:22.368Z,8.35
2023-02-27T12:29:20.909Z,8.84
2023-02-27T12:32:21.347Z,8.77
2023-02-27T12:34:54.620Z,8.53
2023-02-27T12:37:29.043Z,8.58
2023-02-27T12:39:59.118Z,8.82
2023-02-27T12:43:09.449Z,7.58
2023-02-27T12:46:08.093Z,7.64
2023-02-27T12:49:11.760Z,7.70
2023-02-27T12:52:12.953Z,7.34
2023-02-27T12:55:06.697Z,7.28
2023-02-27T12:57:49.616Z,6.05
2023-02-27T13:00:24.710Z,6.26
2023-02-27T13:03:23.463Z,6.16
2023-02-27T13:05:53.829Z,7.23
2023-02-27T13:08:44.939Z,7.10
2023-02-27T13:11:43.594Z,7.37
2023-02-27T13:14:24.746Z,7.66
2023-02-27T13:17:25.814Z,7.54
2023-02-27T13:20:21.487Z,7.48
2023-02-27T13:23:23.885Z,7.59
2023-02-27T13:25:51.718Z,7.54
2023-02-27T13:28:26.581Z,7.71
2023-02-27T13:31:20.736Z,7.19
2023-02-27T13:33:54.523Z,7.54
2023-02-27T13:36:28.092Z,7.28
2023-02-27T13:38:55.889Z,7.15
2023-02-27T13:41:23.449Z,7.02
2023-02-27T13:43:53.134Z,6.97
2023-02-27T13:46:24.725Z,7.29
2023-02-27T13:49:28.180Z,6.70
2023-02-27T13:51:59.392Z,7.09
2023-02-27T13:54:40.348Z,7.23
2023-02-27T13:57:18.114Z,7.46
2023-02-27T13:59:58.022Z,7.78
2023-02-27T14:02:33.852Z,8.04
2023-02-27T14:05:04.057Z,7.72
2023-02-27T14:07:48.841Z,7.74
2023-02-27T14:10:24.152Z,7.84
2023-02-27T14:12:53.042Z,7.14
2023-02-27T14:15:26.609Z,7.81
2023-02-27T14:18:05.851Z,7.37
2023-02-27T14:20:40.187Z,7.50
2023-02-27T14:23:17.097Z,8.26
2023-02-27T14:25:55.375Z,7.80
2023-02-27T14:28:36.341Z,7.48
2023-02-27T14:31:06.045Z,7.07
2023-02-27T14:33:42.156Z,7.24
2023-02-27T14:36:17.011Z,7.54
2023-02-27T14:38:44.818Z,7.72
2023-02-27T14:41:30.917Z,7.88
2023-02-27T14:43:58.666Z,8.22
2023-02-27T14:46:31.912Z,8.13
2023-02-27T14:49:01.951Z,7.87
2023-02-27T14:51:32.524Z,8.09
2023-02-27T14:54:07.238Z,8.29
2023-02-27T14:56:35.020Z,8.01
2023-02-27T14:59:04.646Z,7.56
2023-02-27T15:01:36.053Z,7.67
2023-02-27T15:04:04.498Z,7.84
2023-02-27T15:06:36.675Z,7.88
2023-02-27T15:09:04.538Z,7.94
2023-02-27T15:11:32.197Z,7.80
2023-02-27T15:14:04.681Z,7.68
2023-02-27T15:16:37.689Z,7.74
2023-02-27T15:19:11.981Z,7.86
2023-02-27T15:21:43.159Z,8.12
2023-02-27T15:24:27.748Z,7.79
2023-02-27T15:27:00.446Z,7.89
2023-02-27T15:29:33.157Z,7.58
2023-02-27T15:32:01.415Z,7.88
2023-02-27T15:34:30.757Z,8.08
2023-02-27T15:36:59.110Z,7.93
2023-02-27T15:39:28.801Z,7.81
2023-02-27T15:41:58.599Z,8.01
2023-02-27T15:44:29.292Z,8.06
2023-02-27T15:46:57.226Z,8.13
2023-02-27T15:49:25.052Z,7.99
2023-02-27T15:52:02.967Z,8.25
2023-02-27T15:54:34.599Z,8.15
2023-02-27T15:57:05.177Z,8.08
2023-02-27T15:59:34.854Z,7.71
2023-02-27T16:02:04.201Z,7.89
2023-02-27T16:04:33.296Z,8.10
2023-02-27T16:07:06.307Z,8.11
2023-02-27T16:09:35.328Z,8.02
2023-02-27T16:12:20.605Z,8.01
2023-02-27T16:14:49.028Z,7.65
2023-02-27T16:17:26.826Z,8.15
2023-02-27T16:19:55.477Z,7.75
2023-02-27T16:22:23.238Z,7.23
2023-02-27T16:24:51.268Z,7.25
2023-02-27T16:27:18.950Z,7.41
2023-02-27T16:29:46.687Z,7.46
2023-02-27T16:32:28.873Z,7.63
2023-02-27T16:35:08.017Z,7.31
2023-02-27T16:37:38.040Z,7.59
2023-02-27T16:40:25.462Z,7.99
2023-02-27T16:42:53.406Z,8.01
2023-02-27T16:45:25.858Z,7.81
2023-02-27T16:47:57.877Z,7.40
2023-02-27T16:50:42.971Z,7.93
2023-02-27T16:53:10.772Z,7.80
2023-02-27T16:55:39.360Z,7.96
2023-02-27T16:58:07.078Z,7.19
2023-02-27T17:00:34.917Z,7.39
2023-02-27T17:03:02.742Z,7.61
2023-02-27T17:05:30.569Z,7.94
2023-02-27T17:07:58.240Z,7.65
2023-02-27T17:10:26.307Z,7.64
2023-02-27T17:12:54.073Z,7.81
2023-02-27T17:15:22.116Z,7.34
2023-02-27T17:17:49.774Z,7.16
2023-02-27T17:20:17.701Z,7.52
2023-02-27T17:22:45.486Z,7.53
2023-02-27T17:25:13.547Z,7.64
2023-02-27T17:27:44.479Z,7.53
2023-02-27T17:30:13.284Z,7.48
2023-02-27T17:32:41.055Z,7.48
2023-02-27T17:35:09.281Z,6.85
2023-02-27T17:37:37.090Z,6.84
2023-02-27T17:40:06.325Z,6.92
2023-02-27T17:42:36.028Z,7.13
2023-02-27T17:45:05.612Z,6.69
2023-02-27T17:47:33.565Z,5.91
2023-02-27T17:50:01.316Z,5.78
2023-02-27T17:52:29.092Z,6.02
2023-02-27T17:54:56.927Z,6.42
2023-02-27T17:57:24.601Z,6.37
2023-02-27T17:59:52.329Z,6.22
2023-02-27T18:02:20.200Z,5.87
2023-02-27T18:04:48.422Z,5.28
2023-02-27T18:07:16.213Z,5.14
2023-02-27T18:09:45.760Z,5.47
2023-02-27T18:12:13.463Z,5.25
2023-02-27T18:14:41.162Z,6.48
2023-02-27T18:17:12.059Z,6.54
2023-02-27T18:19:41.604Z,6.66
2023-02-27T18:22:10.010Z,7.00
2023-02-27T18:24:38.236Z,6.73
2023-02-27T18:27:05.970Z,6.64
2023-02-27T18:29:33.817Z,6.89
2023-02-27T18:32:01.548Z,6.65
2023-02-27T18:34:29.327Z,6.88
2023-02-27T18:36:58.263Z,6.98
2023-02-27T18:39:26.164Z,6.64
2023-02-27T18:41:53.850Z,6.62
2023-02-27T18:44:21.583Z,6.95
2023-02-27T18:46:49.438Z,7.29
2023-02-27T18:49:17.255Z,7.29
2023-02-27T18:51:44.936Z,7.50
2023-02-27T18:54:13.733Z,6.75
2023-02-27T18:56:41.522Z,6.59
2023-02-27T18:59:09.395Z,6.25
2023-02-27T19:01:37.765Z,5.53
2023-02-27T19:04:07.175Z,5.19
2023-02-27T19:06:40.996Z,5.78
2023-02-27T19:09:11.830Z,5.86
2023-02-27T19:11:39.544Z,6.03
2023-02-27T19:14:08.489Z,6.54
2023-02-27T19:16:36.317Z,6.47
2023-02-27T19:19:04.952Z,5.40
2023-02-27T19:21:32.729Z,5.41
2023-02-27T19:24:00.778Z,4.83
2023-02-27T19:26:29.083Z,4.24
2023-02-27T19:28:57.274Z,3.71
2023-02-27T19:31:25.036Z,3.65
2023-02-27T19:33:52.843Z,3.81
2023-02-27T19:36:21.808Z,4.14
2023-02-27T19:38:49.665Z,4.11
2023-02-27T19:41:17.805Z,4.29
2023-02-27T19:43:45.864Z,4.39
2023-02-27T19:46:18.570Z,4.39
2023-02-27T19:48:46.438Z,4.26
2023-02-27T19:51:14.603Z,4.78
2023-02-27T19:53:43.183Z,4.77
2023-02-27T19:56:12.822Z,4.66
2023-02-27T19:58:40.819Z,4.49
2023-02-27T20:01:09.835Z,4.47
2023-02-27T20:03:38.069Z,4.89
2023-02-27T20:06:06.434Z,5.38
2023-02-27T20:08:34.235Z,5.76
2023-02-27T20:11:04.334Z,5.85
2023-02-27T20:13:32.057Z,6.24
2023-02-27T20:16:07.488Z,6.42
2023-02-27T20:18:39.326Z,6.62
2023-02-27T20:21:10.616Z,6.49
2023-02-27T20:23:39.326Z,6.50
2023-02-27T20:26:23.330Z,6.63
2023-02-27T20:28:52.157Z,6.69
2023-02-27T20:31:21.267Z,6.73
2023-02-27T20:33:49.264Z,6.83
2023-02-27T20:36:17.191Z,6.87
2023-02-27T20:38:45.007Z,6.68
2023-02-27T20:41:17.270Z,6.68
2023-02-27T20:43:45.107Z,6.61
2023-02-27T20:46:20.432Z,6.47
2023-02-27T20:48:48.163Z,6.79
2023-02-27T20:51:20.131Z,6.71
2023-02-27T20:53:51.572Z,6.74
2023-02-27T20:56:23.734Z,6.72
2023-02-27T20:58:51.501Z,6.58
2023-02-27T21:01:19.352Z,6.46
2023-02-27T21:03:47.295Z,6.51
2023-02-27T21:06:15.447Z,6.65
2023-02-27T21:08:45.507Z,6.49
2023-02-27T21:11:18.324Z,6.89
2023-02-27T21:13:47.169Z,7.06
2023-02-27T21:16:15.906Z,7.04
2023-02-27T21:18:44.037Z,6.71
2023-02-27T21:21:15.027Z,6.36
2023-02-27T21:23:42.957Z,6.96
2023-02-27T21:26:18.200Z,6.63
2023-02-27T21:28:52.133Z,6.79
2023-02-27T21:31:21.089Z,6.93
2023-02-27T21:33:49.300Z,6.77
2023-02-27T21:36:17.189Z,6.57
2023-02-27T21:38:45.988Z,6.07
2023-02-27T21:41:13.704Z,6.60
2023-02-27T21:43:41.441Z,6.66
2023-02-27T21:46:12.651Z,6.77
2023-02-27T21:48:40.447Z,6.76
2023-02-27T21:51:08.160Z,6.81
2023-02-27T21:53:36.950Z,6.81
2023-02-27T21:56:05.988Z,6.90
2023-02-27T21:58:33.914Z,7.03
2023-02-27T22:01:01.690Z,7.15
2023-02-27T22:03:34.315Z,7.01
2023-02-27T22:06:02.198Z,6.98
2023-02-27T22:08:29.915Z,7.10
2023-02-27T22:10:58.169Z,7.28
2023-02-27T22:13:26.328Z,7.19
2023-02-27T22:15:54.207Z,7.28
2023-02-27T22:18:21.906Z,7.16
2023-02-27T22:20:49.681Z,7.15
2023-02-27T22:23:17.473Z,7.39
2023-02-27T22:25:45.265Z,7.20
2023-02-27T22:28:12.997Z,7.23
2023-02-27T22:30:40.789Z,7.42
2023-02-27T22:33:08.722Z,7.17
2023-02-27T22:35:36.718Z,7.08
2023-02-27T22:38:04.449Z,7.21
2023-02-27T22:40:35.898Z,7.28
2023-02-27T22:43:03.929Z,7.14
2023-02-27T22:45:31.612Z,7.07
2023-02-27T22:47:59.307Z,7.17
2023-02-27T22:50:27.088Z,7.29
2023-02-27T22:52:54.766Z,7.23
2023-02-27T22:55:22.543Z,7.16
2023-02-27T22:57:51.805Z,7.09
2023-02-27T23:00:19.595Z,7.28
2023-02-27T23:02:47.250Z,7.19
2023-02-27T23:05:15.029Z,7.16
2023-02-27T23:07:43.694Z,7.25
2023-02-27T23:10:12.266Z,7.06
2023-02-27T23:12:39.956Z,6.88
2023-02-27T23:15:08.482Z,6.77
2023-02-27T23:17:38.149Z,6.83
2023-02-27T23:20:11.838Z,6.89
2023-02-27T23:22:39.497Z,6.76
2023-02-27T23:25:09.167Z,6.09
2023-02-27T23:27:36.852Z,6.72
2023-02-27T23:30:05.004Z,6.82
2023-02-27T23:32:43.625Z,6.90
2023-02-27T23:35:12.187Z,7.07
2023-02-27T23:37:39.964Z,7.04
2023-02-27T23:40:08.207Z,7.17
2023-02-27T23:42:35.980Z,6.53
2023-02-27T23:45:22.238Z,5.59
2023-02-27T23:47:54.877Z,5.86
2023-02-27T23:50:25.154Z,6.23
2023-02-27T23:52:53.741Z,6.03
2023-02-27T23:55:22.689Z,5.97
2023-02-27T23:57:53.756Z,6.53
